Aviation Digital Data Service (ADDS)

Output produced by METARs form (1154 UTC 25 June 2018)
found at http://www.aviationweather.gov/adds/metars/
 
METAR text: KAMW 251137Z AUTO 12005KT 10SM FEW003 FEW110 20/18 A3002 RMK AO2 T02000178
Conditions at: KAMW (AMES , IA, US) observed 1137 UTC 25 June 2018
Temperature: 20.0°C (68°F)
Dewpoint: 17.8°C (64°F) [RH = 87%]
Pressure (altimeter): 30.02 inches Hg (1016.7 mb)
Winds: from the ESE (120 degrees) at 6 MPH (5 knots; 2.6 m/s)
Visibility: 10 or more miles (16+ km)
Ceiling: at least 12,000 feet AGL
Clouds: few clouds at 300 feet AGL
few clouds at 11000 feet AGL
Weather: automated observation with no human augmentation;
there may or may not be significant weather present at this time